createdAt,value
2019-02-27T00:01:56.056Z,16.20
2019-02-27T00:04:26.400Z,17.33
2019-02-27T00:06:56.620Z,17.10
2019-02-27T00:09:26.853Z,17.33
2019-02-27T00:11:57.179Z,17.37
2019-02-27T00:14:28.802Z,16.57
2019-02-27T00:16:59.410Z,16.70
2019-02-27T00:19:31.379Z,15.53
2019-02-27T00:22:01.514Z,17.13
2019-02-27T00:24:31.824Z,17.03
2019-02-27T00:27:02.056Z,17.07
2019-02-27T00:29:32.306Z,17.40
2019-02-27T00:32:02.461Z,18.67
2019-02-27T00:34:33.815Z,17.50
2019-02-27T00:37:04.064Z,15.17
2019-02-27T00:39:34.259Z,17.67
2019-02-27T00:42:04.446Z,17.37
2019-02-27T00:44:35.613Z,17.77
2019-02-27T00:47:05.812Z,17.37
2019-02-27T00:49:36.227Z,16.80
2019-02-27T00:52:06.482Z,15.90
2019-02-27T00:54:36.687Z,17.47
2019-02-27T00:57:06.895Z,17.07
2019-02-27T00:59:37.078Z,17.67
2019-02-27T01:02:07.540Z,19.63
2019-02-27T01:04:38.048Z,18.13
2019-02-27T01:07:08.429Z,17.47
2019-02-27T01:09:39.515Z,17.67
2019-02-27T01:12:10.287Z,17.00
2019-02-27T01:14:40.545Z,16.57
2019-02-27T01:17:10.726Z,17.23
2019-02-27T01:19:42.747Z,17.10
2019-02-27T01:22:12.954Z,17.27
2019-02-27T01:24:43.137Z,16.90
2019-02-27T01:27:13.357Z,20.10
2019-02-27T01:29:43.583Z,18.07
2019-02-27T01:32:13.817Z,18.70
2019-02-27T01:34:44.999Z,18.77
2019-02-27T01:37:15.239Z,18.37
2019-02-27T01:39:45.458Z,18.03
2019-02-27T01:42:15.683Z,19.20
2019-02-27T01:44:46.562Z,17.57
2019-02-27T01:47:19.261Z,17.90
2019-02-27T01:49:49.796Z,19.27
2019-02-27T01:52:20.039Z,18.47
2019-02-27T01:54:50.215Z,17.13
2019-02-27T01:57:20.414Z,18.20
2019-02-27T01:59:51.045Z,18.27
2019-02-27T02:02:22.711Z,19.13
2019-02-27T02:04:53.796Z,18.33
2019-02-27T02:07:24.107Z,18.50
2019-02-27T02:09:55.239Z,17.57
2019-02-27T02:12:31.450Z,18.60
2019-02-27T02:15:43.550Z,18.23
2019-02-27T02:18:57.308Z,16.87
2019-02-27T02:21:52.211Z,17.67
2019-02-27T02:24:58.726Z,16.97
2019-02-27T02:28:00.346Z,17.13
2019-02-27T02:31:16.061Z,19.30
2019-02-27T02:34:21.499Z,20.00
2019-02-27T02:37:37.722Z,19.40
2019-02-27T02:40:54.153Z,19.00
2019-02-27T02:43:57.515Z,19.27
2019-02-27T02:47:19.587Z,20.80
2019-02-27T02:50:31.825Z,17.77
2019-02-27T02:53:48.566Z,19.57
2019-02-27T02:56:28.195Z,17.33
2019-02-27T02:59:33.698Z,19.97
2019-02-27T03:02:25.171Z,19.50
2019-02-27T03:05:23.273Z,18.17
2019-02-27T03:08:27.175Z,18.57
2019-02-27T03:11:23.319Z,19.57
2019-02-27T03:14:24.349Z,20.87
2019-02-27T03:17:41.256Z,21.70
2019-02-27T03:20:52.392Z,21.23
2019-02-27T03:23:55.530Z,18.13
2019-02-27T03:26:53.072Z,18.90
2019-02-27T03:30:03.710Z,19.27
2019-02-27T03:33:08.205Z,18.80
2019-02-27T03:36:36.123Z,19.87
2019-02-27T03:39:52.091Z,18.83
2019-02-27T03:42:35.709Z,19.23
2019-02-27T03:45:34.559Z,20.80
2019-02-27T03:48:14.485Z,19.37
2019-02-27T03:51:10.122Z,19.63
2019-02-27T03:53:57.862Z,19.37
2019-02-27T03:57:07.273Z,19.93
2019-02-27T04:00:04.479Z,18.33
2019-02-27T04:03:18.199Z,18.70
2019-02-27T04:06:27.846Z,17.70
2019-02-27T04:08:58.914Z,17.30
2019-02-27T04:11:30.529Z,18.37
2019-02-27T04:14:04.936Z,17.97
2019-02-27T04:16:33.209Z,18.93
2019-02-27T04:19:04.989Z,19.10
2019-02-27T04:21:35.432Z,19.80
2019-02-27T04:24:05.693Z,20.40
2019-02-27T04:26:41.511Z,20.37
2019-02-27T04:29:08.570Z,20.37
2019-02-27T04:31:38.832Z,19.77
2019-02-27T04:34:09.081Z,18.87
2019-02-27T04:36:39.345Z,21.70
2019-02-27T04:39:09.594Z,32.07
2019-02-27T04:41:39.953Z,24.93
2019-02-27T04:44:10.165Z,22.00
2019-02-27T04:46:40.358Z,20.07
2019-02-27T04:49:10.704Z,19.70
2019-02-27T04:51:40.985Z,20.50
2019-02-27T04:54:11.221Z,18.97
2019-02-27T04:56:41.455Z,18.90
2019-02-27T04:59:11.661Z,21.40
2019-02-27T05:01:41.884Z,20.90
2019-02-27T05:04:12.159Z,19.63
2019-02-27T05:06:46.799Z,19.87
2019-02-27T05:09:14.664Z,18.97
2019-02-27T05:11:47.460Z,18.93
2019-02-27T05:14:16.898Z,18.00
2019-02-27T05:16:47.800Z,19.47
2019-02-27T05:19:18.058Z,24.73
2019-02-27T05:21:52.265Z,27.63
2019-02-27T05:24:20.308Z,26.13
2019-02-27T05:26:50.569Z,28.43
2019-02-27T05:29:20.776Z,46.87
2019-02-27T05:31:53.326Z,39.03
2019-02-27T05:34:23.024Z,29.77
2019-02-27T05:36:53.258Z,27.33
2019-02-27T05:39:23.470Z,26.03
2019-02-27T05:41:53.893Z,25.60
2019-02-27T05:44:24.089Z,26.33
2019-02-27T05:46:54.364Z,25.40
2019-02-27T05:49:26.813Z,26.83
2019-02-27T05:51:56.510Z,25.67
2019-02-27T05:54:26.809Z,28.47
2019-02-27T05:56:57.101Z,28.00
2019-02-27T05:59:29.399Z,25.87
2019-02-27T06:01:59.285Z,22.80
2019-02-27T06:04:29.529Z,21.50
2019-02-27T06:06:59.995Z,21.40
2019-02-27T06:09:30.562Z,20.80
2019-02-27T06:12:00.891Z,20.60
2019-02-27T06:14:31.147Z,21.20
2019-02-27T06:17:01.538Z,18.70
2019-02-27T06:19:33.700Z,20.43
2019-02-27T06:22:05.792Z,19.50
2019-02-27T06:24:35.707Z,20.17
2019-02-27T06:27:06.827Z,19.67
2019-02-27T06:29:37.231Z,20.47
2019-02-27T06:32:11.979Z,20.97
2019-02-27T06:34:59.274Z,21.13
2019-02-27T06:37:29.466Z,19.53
2019-02-27T06:39:59.699Z,20.23
2019-02-27T06:42:30.019Z,20.07
2019-02-27T06:45:00.422Z,20.80
2019-02-27T06:47:32.993Z,20.23
2019-02-27T06:50:04.930Z,20.10
2019-02-27T06:52:35.535Z,24.70
2019-02-27T06:55:07.009Z,22.83
2019-02-27T06:57:40.943Z,23.43
2019-02-27T07:00:14.016Z,20.73
2019-02-27T07:02:44.633Z,22.20
2019-02-27T07:05:27.674Z,20.10
2019-02-27T07:07:59.245Z,20.73
2019-02-27T07:10:29.466Z,24.30
2019-02-27T07:12:59.811Z,22.97
2019-02-27T07:15:30.086Z,24.90
2019-02-27T07:18:00.426Z,21.27
2019-02-27T07:20:34.397Z,23.17
2019-02-27T07:23:04.837Z,22.40
2019-02-27T07:25:35.086Z,22.87
2019-02-27T07:28:08.445Z,22.57
2019-02-27T07:30:42.650Z,21.50
2019-02-27T07:33:12.233Z,21.13
2019-02-27T07:35:42.468Z,20.87
2019-02-27T07:38:16.134Z,22.00
2019-02-27T07:40:46.454Z,22.00
2019-02-27T07:43:16.883Z,23.73
2019-02-27T07:45:47.152Z,23.50
2019-02-27T07:48:17.624Z,21.33
2019-02-27T07:50:49.151Z,25.73
2019-02-27T07:53:19.561Z,35.27
2019-02-27T07:55:51.470Z,31.67
2019-02-27T07:58:22.788Z,27.33
2019-02-27T08:00:53.139Z,25.83
2019-02-27T08:03:23.370Z,25.40
2019-02-27T08:05:54.668Z,24.33
2019-02-27T08:08:25.146Z,26.07
2019-02-27T08:10:55.355Z,23.33
2019-02-27T08:13:27.093Z,23.27
2019-02-27T08:15:58.117Z,23.03
2019-02-27T08:18:30.486Z,21.57
2019-02-27T08:21:01.557Z,21.50
2019-02-27T08:23:32.854Z,20.90
2019-02-27T08:26:05.140Z,23.10
2019-02-27T08:28:35.533Z,23.23
2019-02-27T08:31:05.964Z,23.90
2019-02-27T08:33:36.219Z,24.00
2019-02-27T08:36:06.704Z,20.73
2019-02-27T08:38:37.090Z,21.43
2019-02-27T08:41:07.315Z,22.43
2019-02-27T08:43:37.573Z,22.13
2019-02-27T08:46:07.800Z,21.07
2019-02-27T08:48:38.185Z,22.70
2019-02-27T08:51:08.814Z,21.67
2019-02-27T08:53:39.339Z,21.47
2019-02-27T08:56:12.437Z,21.07
2019-02-27T08:58:43.201Z,21.90
2019-02-27T09:01:13.738Z,23.17
2019-02-27T09:03:44.540Z,22.37
2019-02-27T09:06:17.783Z,21.93
2019-02-27T09:08:47.095Z,19.00
2019-02-27T09:11:17.320Z,18.33
2019-02-27T09:13:47.579Z,20.53
2019-02-27T09:16:18.005Z,18.33
2019-02-27T09:18:59.968Z,18.17
2019-02-27T09:21:40.572Z,19.60
2019-02-27T09:24:19.319Z,20.23
2019-02-27T09:26:52.287Z,19.77
2019-02-27T09:29:22.640Z,18.23
2019-02-27T09:32:01.271Z,18.00
2019-02-27T09:34:32.638Z,18.77
2019-02-27T09:37:02.890Z,17.57
2019-02-27T09:39:35.153Z,17.73
2019-02-27T09:42:05.512Z,18.07
2019-02-27T09:44:36.645Z,18.33
2019-02-27T09:47:07.024Z,19.67
2019-02-27T09:49:40.636Z,17.73
2019-02-27T09:52:10.707Z,17.83
2019-02-27T09:54:40.936Z,19.50
2019-02-27T09:57:11.229Z,16.97
2019-02-27T09:59:43.829Z,18.23
2019-02-27T10:02:14.733Z,18.10
2019-02-27T10:04:49.119Z,18.43
2019-02-27T10:07:19.374Z,18.73
2019-02-27T10:09:49.831Z,18.17
2019-02-27T10:12:34.080Z,18.10
2019-02-27T10:15:17.767Z,18.73
2019-02-27T10:18:19.003Z,18.90
2019-02-27T10:21:04.336Z,18.37
2019-02-27T10:23:47.075Z,19.80
2019-02-27T10:26:24.194Z,19.67
2019-02-27T10:28:58.800Z,20.13
2019-02-27T10:31:31.150Z,19.93
2019-02-27T10:34:04.396Z,19.60
2019-02-27T10:36:39.041Z,19.33
2019-02-27T10:39:11.804Z,20.80
2019-02-27T10:41:44.870Z,20.47
2019-02-27T10:44:18.828Z,19.87
2019-02-27T10:46:49.392Z,20.97
2019-02-27T10:49:23.310Z,20.67
2019-02-27T10:51:53.975Z,20.93
2019-02-27T10:54:24.265Z,21.27
2019-02-27T10:56:56.362Z,20.23
2019-02-27T10:59:35.788Z,20.03
2019-02-27T11:02:15.705Z,19.77
2019-02-27T11:04:54.293Z,19.33
2019-02-27T11:07:34.623Z,22.17
2019-02-27T11:10:17.543Z,20.87
2019-02-27T11:12:49.417Z,20.20
2019-02-27T11:15:20.135Z,20.37
2019-02-27T11:18:05.934Z,21.83
2019-02-27T11:20:45.488Z,19.27
2019-02-27T11:23:25.424Z,18.87
2019-02-27T11:26:02.950Z,18.60
2019-02-27T11:28:47.529Z,18.97
2019-02-27T11:31:23.710Z,18.80
2019-02-27T11:34:05.120Z,17.33
2019-02-27T11:36:42.257Z,18.47
2019-02-27T11:39:21.826Z,18.60
2019-02-27T11:42:00.885Z,19.27
2019-02-27T11:44:40.796Z,17.43
2019-02-27T11:47:24.098Z,19.10
2019-02-27T11:50:07.006Z,17.97
2019-02-27T11:52:49.765Z,18.53
2019-02-27T11:55:27.835Z,17.03
2019-02-27T11:58:08.431Z,16.77
2019-02-27T12:00:45.204Z,16.43
2019-02-27T12:03:20.874Z,18.00
2019-02-27T12:05:57.765Z,18.17
2019-02-27T12:08:37.049Z,16.43
2019-02-27T12:11:09.752Z,17.70
2019-02-27T12:13:45.499Z,17.17
2019-02-27T12:16:18.335Z,16.90
2019-02-27T12:18:53.789Z,17.77
2019-02-27T12:21:27.491Z,16.73
2019-02-27T12:23:58.443Z,14.47
2019-02-27T12:26:30.309Z,15.20
2019-02-27T12:29:01.967Z,14.00
2019-02-27T12:31:33.515Z,15.33
2019-02-27T12:34:03.885Z,14.33
2019-02-27T12:36:34.191Z,14.00
2019-02-27T12:39:05.892Z,13.33
2019-02-27T12:41:45.353Z,11.33
2019-02-27T12:44:22.226Z,13.97
2019-02-27T12:46:53.678Z,12.93
2019-02-27T12:49:31.190Z,14.73
2019-02-27T12:52:12.115Z,13.33
2019-02-27T12:54:54.188Z,13.90
2019-02-27T12:57:25.764Z,13.40
2019-02-27T13:00:05.749Z,12.93
2019-02-27T13:02:44.159Z,12.90
2019-02-27T13:05:15.494Z,13.77
2019-02-27T13:07:45.795Z,13.53
2019-02-27T13:10:17.845Z,13.37
2019-02-27T13:12:49.211Z,12.37
2019-02-27T13:15:21.510Z,12.57
2019-02-27T13:17:56.180Z,12.87
2019-02-27T13:20:25.529Z,12.00
2019-02-27T13:22:55.962Z,13.10
2019-02-27T13:25:26.738Z,14.25
2019-02-27T13:27:56.897Z,10.87
2019-02-27T13:30:25.806Z,14.57
2019-02-27T13:32:54.743Z,13.67
2019-02-27T13:35:24.037Z,13.10
2019-02-27T13:37:53.090Z,12.87
2019-02-27T13:40:22.166Z,13.20
2019-02-27T13:42:53.682Z,12.57
2019-02-27T13:45:23.455Z,13.20
2019-02-27T13:47:59.223Z,13.97
2019-02-27T13:50:40.267Z,12.83
2019-02-27T13:53:16.396Z,12.60
2019-02-27T13:55:50.539Z,13.47
2019-02-27T13:58:20.505Z,13.13
2019-02-27T14:00:49.431Z,12.97
2019-02-27T14:03:18.429Z,13.30
2019-02-27T14:05:47.397Z,13.43
2019-02-27T14:08:16.391Z,13.30
2019-02-27T14:10:50.529Z,13.00
2019-02-27T14:13:18.815Z,12.13
2019-02-27T14:15:53.834Z,9.70
2019-02-27T14:18:29.301Z,10.03
2019-02-27T14:21:03.235Z,10.10
2019-02-27T14:23:40.782Z,9.17
2019-02-27T14:26:10.603Z,9.17
2019-02-27T14:28:39.672Z,9.27
2019-02-27T14:31:09.524Z,8.73
2019-02-27T14:33:39.267Z,8.27
2019-02-27T14:36:09.157Z,9.53
2019-02-27T14:38:40.794Z,8.70
2019-02-27T14:41:11.240Z,9.07
2019-02-27T14:43:52.451Z,9.17
2019-02-27T14:46:45.019Z,9.00
2019-02-27T14:49:26.798Z,8.43
2019-02-27T14:52:03.771Z,9.00
2019-02-27T14:54:41.615Z,8.17
2019-02-27T14:57:18.355Z,9.27
2019-02-27T14:59:56.051Z,8.47
2019-02-27T15:02:32.299Z,8.57
2019-02-27T15:05:08.464Z,8.17
2019-02-27T15:07:36.043Z,7.73
2019-02-27T15:10:11.249Z,7.23
2019-02-27T15:12:45.118Z,7.00
2019-02-27T15:15:16.775Z,7.03
2019-02-27T15:17:52.537Z,6.63
2019-02-27T15:20:27.928Z,11.83
2019-02-27T15:23:04.548Z,7.73
2019-02-27T15:25:43.166Z,7.53
2019-02-27T15:28:21.147Z,6.97
2019-02-27T15:32:57.475Z,7.47
2019-02-27T15:35:36.049Z,5.93
2019-02-27T15:38:15.267Z,7.07
2019-02-27T15:40:56.709Z,7.17
2019-02-27T15:43:35.177Z,6.37
2019-02-27T15:46:12.543Z,6.93
2019-02-27T15:48:51.552Z,6.37
2019-02-27T15:51:32.269Z,6.60
2019-02-27T15:54:12.753Z,6.00
2019-02-27T15:56:52.995Z,6.17
2019-02-27T15:59:34.325Z,6.20
2019-02-27T16:02:13.225Z,5.70
2019-02-27T16:04:55.429Z,6.20
2019-02-27T16:07:33.711Z,6.30
2019-02-27T16:10:14.728Z,5.83
2019-02-27T16:12:59.583Z,6.23
2019-02-27T16:15:44.688Z,6.83
2019-02-27T16:18:15.624Z,6.70
2019-02-27T16:20:47.105Z,5.87
2019-02-27T16:23:17.884Z,6.27
2019-02-27T16:25:52.894Z,6.47
2019-02-27T16:28:20.291Z,6.80
2019-02-27T16:30:50.510Z,7.07
2019-02-27T16:33:24.035Z,7.33
2019-02-27T16:35:52.950Z,7.53
2019-02-27T16:38:23.183Z,5.83
2019-02-27T16:40:53.653Z,6.97
2019-02-27T16:43:24.075Z,6.67
2019-02-27T16:45:54.763Z,7.20
2019-02-27T16:48:25.411Z,7.73
2019-02-27T16:50:57.336Z,8.07
2019-02-27T16:53:28.115Z,7.53
2019-02-27T16:55:58.736Z,8.10
2019-02-27T16:58:32.816Z,7.70
2019-02-27T17:01:01.181Z,8.03
2019-02-27T17:03:33.238Z,6.70
2019-02-27T17:06:03.812Z,7.97
2019-02-27T17:08:35.686Z,7.20
2019-02-27T17:11:06.450Z,7.83
2019-02-27T17:13:37.129Z,7.03
2019-02-27T17:16:10.843Z,6.00
2019-02-27T17:18:40.144Z,8.20
2019-02-27T17:21:10.668Z,7.33
2019-02-27T17:23:45.303Z,8.23
2019-02-27T17:26:13.530Z,7.57
2019-02-27T17:28:43.940Z,8.33
2019-02-27T17:31:14.182Z,7.77
2019-02-27T17:33:44.326Z,9.40
2019-02-27T17:36:14.709Z,8.27
2019-02-27T17:38:49.177Z,8.43
2019-02-27T17:41:17.219Z,10.43
2019-02-27T17:43:47.438Z,9.37
2019-02-27T17:46:20.494Z,10.37
2019-02-27T17:48:49.626Z,9.57
2019-02-27T17:51:19.871Z,9.67
2019-02-27T17:53:50.282Z,8.50
2019-02-27T17:56:21.534Z,7.30
2019-02-27T17:58:51.830Z,8.23
2019-02-27T18:01:24.953Z,7.13
2019-02-27T18:03:54.143Z,6.60
2019-02-27T18:06:24.452Z,9.23
2019-02-27T18:08:54.791Z,14.93
2019-02-27T18:11:25.063Z,7.33
2019-02-27T18:13:55.284Z,7.83
2019-02-27T18:16:27.331Z,8.10
2019-02-27T18:18:58.847Z,9.20
2019-02-27T18:21:33.532Z,9.43
2019-02-27T18:24:00.977Z,8.47
2019-02-27T18:26:31.361Z,8.10
2019-02-27T18:29:04.292Z,10.13
2019-02-27T18:31:35.025Z,9.83
2019-02-27T18:34:05.447Z,9.37
2019-02-27T18:36:42.651Z,9.90
2019-02-27T18:39:08.495Z,10.03
2019-02-27T18:41:39.827Z,12.73
2019-02-27T18:44:11.485Z,10.87
2019-02-27T18:46:41.682Z,10.23
2019-02-27T18:49:11.919Z,12.07
2019-02-27T18:51:42.212Z,12.60
2019-02-27T18:54:12.454Z,11.70
2019-02-27T18:56:42.714Z,12.63
2019-02-27T18:59:12.942Z,11.57
2019-02-27T19:01:45.171Z,13.67
2019-02-27T19:04:15.307Z,16.13
2019-02-27T19:06:46.230Z,13.60
2019-02-27T19:09:17.227Z,15.93
2019-02-27T19:11:50.964Z,14.87
2019-02-27T19:14:19.602Z,12.90
2019-02-27T19:16:52.108Z,12.53
2019-02-27T19:19:22.068Z,15.53
2019-02-27T19:21:52.280Z,15.87
2019-02-27T19:24:26.704Z,17.30
2019-02-27T19:26:54.719Z,16.97
2019-02-27T19:29:26.637Z,14.67
2019-02-27T19:31:57.896Z,14.57
2019-02-27T19:34:28.167Z,14.77
2019-02-27T19:36:58.439Z,15.07
2019-02-27T19:39:28.709Z,14.17
2019-02-27T19:41:58.934Z,16.53
2019-02-27T19:44:29.335Z,15.40
2019-02-27T19:47:00.634Z,15.90
2019-02-27T19:49:30.969Z,14.50
2019-02-27T19:52:01.587Z,15.40
2019-02-27T19:54:31.858Z,14.50
2019-02-27T19:57:02.073Z,14.33
2019-02-27T19:59:32.306Z,13.97
2019-02-27T20:02:03.872Z,14.47
2019-02-27T20:04:34.301Z,16.20
2019-02-27T20:07:04.527Z,12.83
2019-02-27T20:09:35.053Z,12.37
2019-02-27T20:12:05.966Z,16.23
2019-02-27T20:14:36.672Z,17.57
2019-02-27T20:17:07.992Z,16.67
2019-02-27T20:19:38.466Z,16.57
2019-02-27T20:22:08.792Z,16.93
2019-02-27T20:24:39.328Z,17.83
2019-02-27T20:27:09.673Z,16.30
2019-02-27T20:29:40.879Z,16.17
2019-02-27T20:32:11.228Z,16.87
2019-02-27T20:34:42.678Z,16.53
2019-02-27T20:37:14.250Z,16.80
2019-02-27T20:39:46.338Z,17.77
2019-02-27T20:42:16.664Z,17.63
2019-02-27T20:44:46.954Z,17.33
2019-02-27T20:47:17.190Z,19.27
2019-02-27T20:49:48.035Z,17.53
2019-02-27T20:52:18.387Z,16.57
2019-02-27T20:54:49.671Z,17.70
2019-02-27T20:57:20.097Z,18.10
2019-02-27T20:59:50.455Z,16.03
2019-02-27T21:02:21.983Z,15.53
2019-02-27T21:04:52.335Z,15.80
2019-02-27T21:07:26.038Z,14.10
2019-02-27T21:09:54.534Z,14.60
2019-02-27T21:12:24.937Z,14.73
2019-02-27T21:14:57.875Z,16.63
2019-02-27T21:17:28.472Z,17.33
2019-02-27T21:19:58.812Z,18.47
2019-02-27T21:22:29.109Z,16.83
2019-02-27T21:24:59.444Z,18.13
2019-02-27T21:27:32.936Z,18.87
2019-02-27T21:30:01.863Z,17.30
2019-02-27T21:32:36.152Z,15.93
2019-02-27T21:35:05.966Z,15.70
2019-02-27T21:37:37.939Z,17.73
2019-02-27T21:40:10.334Z,16.63
2019-02-27T21:42:40.805Z,16.73
2019-02-27T21:45:13.661Z,15.57
2019-02-27T21:47:45.197Z,15.50
2019-02-27T21:50:16.882Z,15.90
2019-02-27T21:52:47.149Z,15.37
2019-02-27T21:55:17.533Z,15.37
2019-02-27T21:57:47.826Z,15.83
2019-02-27T22:00:21.689Z,16.47
2019-02-27T22:02:52.177Z,15.83
2019-02-27T22:05:22.794Z,16.83
2019-02-27T22:07:53.365Z,16.87
2019-02-27T22:10:23.609Z,16.87
2019-02-27T22:12:53.834Z,18.13
2019-02-27T22:15:26.217Z,16.10
2019-02-27T22:17:56.890Z,17.30
2019-02-27T22:20:27.348Z,14.87
2019-02-27T22:23:02.713Z,15.77
2019-02-27T22:25:32.972Z,15.70
2019-02-27T22:28:03.168Z,14.10
2019-02-27T22:30:33.353Z,14.93
2019-02-27T22:33:03.622Z,13.60
2019-02-27T22:35:37.332Z,14.23
2019-02-27T22:38:05.952Z,13.97
2019-02-27T22:40:38.030Z,15.80
2019-02-27T22:43:08.097Z,11.50
2019-02-27T22:45:41.966Z,12.77
2019-02-27T22:48:10.298Z,14.13
2019-02-27T22:50:41.198Z,17.10
2019-02-27T22:53:12.283Z,13.43
2019-02-27T22:55:43.162Z,12.97
2019-02-27T22:58:13.504Z,12.20
2019-02-27T23:01:07.538Z,12.17
2019-02-27T23:03:50.492Z,12.10
2019-02-27T23:06:20.846Z,11.03
2019-02-27T23:08:54.458Z,12.60
2019-02-27T23:11:23.587Z,12.50
2019-02-27T23:13:53.810Z,11.90
2019-02-27T23:16:24.126Z,11.07
2019-02-27T23:18:55.630Z,12.30
2019-02-27T23:21:26.585Z,11.27
2019-02-27T23:23:57.534Z,12.20
2019-02-27T23:26:27.769Z,11.57
2019-02-27T23:28:59.041Z,12.00
2019-02-27T23:31:29.417Z,12.20
2019-02-27T23:33:59.641Z,11.77
2019-02-27T23:36:29.999Z,12.30
2019-02-27T23:39:00.228Z,10.83
2019-02-27T23:41:30.530Z,12.17
2019-02-27T23:44:00.772Z,11.93
2019-02-27T23:46:31.043Z,10.70
2019-02-27T23:49:01.343Z,11.40
2019-02-27T23:51:31.690Z,10.17
2019-02-27T23:54:02.908Z,10.90
2019-02-27T23:56:33.269Z,11.10
2019-02-27T23:59:03.581Z,10.30
